Deering, Alaska
Current Conditions -  °F | °C
As of 1:53 AM on Sunday 23 Nov 2014 (Local Time) from PADE Reporting Station
Clear Clear  
Wind Chill: -6°   Ceiling: Unl
Heat Index: -6°   Visibility: 10mi
Dew Point: -11°   Wind: 3mph
Humidity: 79%   Direction: 220°SW
Pressure: 29.64"   Gusts: NA
Location:  66.07°N, 162.72°W
Report Text: PADE 231053Z AUTO 22003KT 10SM CLR M21/M24 A2964 RMK AO2 SLP036 T12111239 TSNO
Loading
Personal Weather Stations






























Interactive Weather Map New forecast layout! Learn more

10-Day Weather Forecast

Advertisements
Track Severe Weather on mobile